createdAt,value
2022-11-12T00:00:12.252Z,58.68
2022-11-12T00:03:16.617Z,58.55
2022-11-12T00:06:20.740Z,58.67
2022-11-12T00:09:25.108Z,58.72
2022-11-12T00:12:29.549Z,58.61
2022-11-12T00:15:34.073Z,58.79
2022-11-12T00:18:38.282Z,58.67
2022-11-12T00:21:42.366Z,58.82
2022-11-12T00:24:46.707Z,58.73
2022-11-12T00:27:50.888Z,58.75
2022-11-12T00:30:55.165Z,58.94
2022-11-12T00:33:59.335Z,58.92
2022-11-12T00:37:03.873Z,58.91
2022-11-12T00:40:08.773Z,58.68
2022-11-12T00:43:13.243Z,58.87
2022-11-12T00:46:17.258Z,58.91
2022-11-12T00:49:21.501Z,59.13
2022-11-12T00:52:25.859Z,59.03
2022-11-12T00:55:30.171Z,59.08
2022-11-12T00:58:36.097Z,59.04
2022-11-12T01:01:41.035Z,58.99
2022-11-12T01:04:45.030Z,59.15
2022-11-12T01:07:54.740Z,59.24
2022-11-12T01:11:08.188Z,59.29
2022-11-12T01:14:12.199Z,59.09
2022-11-12T01:17:16.169Z,59.04
2022-11-12T01:20:20.444Z,59.28
2022-11-12T01:23:24.544Z,59.25
2022-11-12T01:26:29.011Z,59.32
2022-11-12T01:29:33.393Z,59.28
2022-11-12T01:32:37.968Z,59.31
2022-11-12T01:35:42.488Z,59.37
2022-11-12T01:38:47.632Z,59.38
2022-11-12T01:41:52.139Z,59.36
2022-11-12T01:44:56.636Z,59.44
2022-11-12T01:48:01.527Z,59.22
2022-11-12T01:51:08.017Z,59.47
2022-11-12T01:54:15.693Z,59.30
2022-11-12T01:57:37.103Z,59.38
2022-11-12T02:00:42.256Z,59.52
2022-11-12T02:03:46.676Z,59.42
2022-11-12T02:06:51.814Z,59.62
2022-11-12T02:09:56.238Z,59.59
2022-11-12T02:13:20.369Z,59.58
2022-11-12T02:16:32.807Z,59.81
2022-11-12T02:19:38.021Z,59.82
2022-11-12T02:22:42.630Z,59.63
2022-11-12T02:25:46.833Z,59.66
2022-11-12T02:28:50.806Z,59.76
2022-11-12T02:31:55.051Z,59.72
2022-11-12T02:34:59.454Z,59.68
2022-11-12T02:38:05.034Z,59.66
2022-11-12T02:41:08.877Z,59.83
2022-11-12T02:44:12.947Z,59.86
2022-11-12T02:47:17.193Z,59.70
2022-11-12T02:50:21.214Z,59.89
2022-11-12T02:53:25.647Z,59.79
2022-11-12T02:56:29.938Z,59.86
2022-11-12T02:59:34.040Z,59.78
2022-11-12T03:02:42.867Z,59.90
2022-11-12T03:05:56.306Z,59.84
2022-11-12T03:09:00.462Z,59.98
2022-11-12T03:12:04.874Z,60.02
2022-11-12T03:15:09.820Z,59.78
2022-11-12T03:18:14.270Z,60.00
2022-11-12T03:21:18.463Z,60.07
2022-11-12T03:24:22.587Z,60.04
2022-11-12T03:27:26.614Z,60.07
2022-11-12T03:30:33.958Z,59.98
2022-11-12T03:33:38.335Z,60.00
2022-11-12T03:36:42.577Z,60.01
2022-11-12T03:39:46.857Z,59.93
2022-11-12T03:42:52.354Z,60.17
2022-11-12T03:45:56.415Z,59.94
2022-11-12T03:49:02.672Z,59.96
2022-11-12T03:52:06.833Z,60.19
2022-11-12T03:55:11.426Z,60.11
2022-11-12T03:58:15.651Z,60.11
2022-11-12T04:01:19.815Z,60.10
2022-11-12T04:04:23.779Z,60.04
2022-11-12T04:07:46.590Z,60.11
2022-11-12T04:10:51.253Z,60.10
2022-11-12T04:13:55.640Z,60.29
2022-11-12T04:17:18.356Z,60.36
2022-11-12T04:20:41.045Z,60.50
2022-11-12T04:23:45.229Z,60.49
2022-11-12T04:26:49.337Z,60.37
2022-11-12T04:30:12.507Z,60.37
2022-11-12T04:33:16.791Z,60.41
2022-11-12T04:36:21.356Z,60.48
2022-11-12T04:39:25.569Z,60.50
2022-11-12T04:42:48.148Z,60.42
2022-11-12T04:45:54.026Z,60.73
2022-11-12T04:48:58.143Z,60.59
2022-11-12T04:52:05.253Z,60.57
2022-11-12T04:55:10.069Z,60.79
2022-11-12T04:58:14.029Z,60.67
2022-11-12T05:01:18.161Z,61.01
2022-11-12T05:04:22.461Z,61.00
2022-11-12T05:07:26.534Z,61.23
2022-11-12T05:10:31.209Z,61.51
2022-11-12T05:13:35.145Z,61.54
2022-11-12T05:16:40.066Z,61.70
2022-11-12T05:19:44.256Z,61.92
2022-11-12T05:23:05.003Z,61.82
2022-11-12T05:26:10.460Z,62.33
2022-11-12T05:29:14.606Z,62.29
2022-11-12T05:32:18.900Z,62.47
2022-11-12T05:35:22.935Z,62.30
2022-11-12T05:38:27.316Z,62.53
2022-11-12T05:41:51.101Z,62.60
2022-11-12T05:44:55.783Z,62.50
2022-11-12T05:48:00.069Z,62.76
2022-11-12T05:51:13.149Z,62.88
2022-11-12T05:54:18.437Z,63.02
2022-11-12T05:57:22.231Z,59.27
2022-11-12T06:00:26.377Z,57.22
2022-11-12T06:03:31.109Z,57.26
2022-11-12T06:06:35.741Z,58.67
2022-11-12T06:09:40.450Z,59.84
2022-11-12T06:12:44.645Z,60.48
2022-11-12T06:15:49.095Z,60.58
2022-11-12T06:18:53.366Z,60.06
2022-11-12T06:21:57.637Z,59.72
2022-11-12T06:25:02.250Z,59.73
2022-11-12T06:28:06.591Z,59.78
2022-11-12T06:31:10.964Z,59.73
2022-11-12T06:34:15.174Z,59.66
2022-11-12T06:37:20.041Z,59.84
2022-11-12T06:40:24.306Z,60.48
2022-11-12T06:43:30.775Z,60.53
2022-11-12T06:46:34.897Z,60.54
2022-11-12T06:49:39.398Z,60.59
2022-11-12T06:52:43.819Z,60.66
2022-11-12T06:55:48.196Z,60.53
2022-11-12T06:58:52.494Z,60.41
2022-11-12T07:01:56.560Z,60.34
2022-11-12T07:05:00.985Z,60.20
2022-11-12T07:08:06.668Z,59.97
2022-11-12T07:11:11.435Z,59.55
2022-11-12T07:14:15.195Z,59.55
2022-11-12T07:17:19.174Z,59.31
2022-11-12T07:20:23.628Z,59.19
2022-11-12T07:23:30.703Z,59.04
2022-11-12T07:26:35.211Z,58.84
2022-11-12T07:29:49.012Z,58.73
2022-11-12T07:32:53.326Z,58.93
2022-11-12T07:36:01.843Z,59.98
2022-11-12T07:39:06.136Z,60.47
2022-11-12T07:42:10.233Z,60.90
2022-11-12T07:45:14.390Z,60.31
2022-11-12T07:48:18.605Z,60.96
2022-11-12T07:51:25.912Z,61.15
2022-11-12T07:54:30.117Z,61.29
2022-11-12T07:57:34.810Z,60.90
2022-11-12T08:00:38.710Z,60.78
2022-11-12T08:03:42.864Z,60.70
2022-11-12T08:06:47.390Z,60.81
2022-11-12T08:09:51.708Z,60.79
2022-11-12T08:12:57.094Z,60.79
2022-11-12T08:16:02.755Z,60.86
2022-11-12T08:19:09.312Z,61.06
2022-11-12T08:22:13.935Z,60.45
2022-11-12T08:25:20.368Z,59.83
2022-11-12T08:28:25.062Z,59.36
2022-11-12T08:31:29.555Z,59.78
2022-11-12T08:34:33.936Z,59.80
2022-11-12T08:37:38.020Z,59.93
2022-11-12T08:40:42.228Z,60.13
2022-11-12T08:43:46.706Z,60.38
2022-11-12T08:46:51.649Z,60.62
2022-11-12T08:49:55.622Z,60.46
2022-11-12T08:53:08.342Z,60.50
2022-11-12T08:56:12.893Z,60.78
2022-11-12T08:59:17.681Z,61.51
2022-11-12T09:02:22.259Z,60.52
2022-11-12T09:05:26.211Z,60.60
2022-11-12T09:08:30.583Z,60.01
2022-11-12T09:11:35.255Z,60.04
2022-11-12T09:14:39.365Z,60.29
2022-11-12T09:17:43.473Z,60.29
2022-11-12T09:20:47.777Z,60.13
2022-11-12T09:23:52.145Z,60.07
2022-11-12T09:26:56.585Z,60.09
2022-11-12T09:30:00.963Z,60.02
2022-11-12T09:33:05.161Z,59.88
2022-11-12T09:36:09.403Z,59.37
2022-11-12T09:39:13.350Z,59.22
2022-11-12T09:42:22.217Z,59.08
2022-11-12T09:45:31.264Z,59.18
2022-11-12T09:48:44.348Z,59.16
2022-11-12T09:51:56.528Z,59.16
2022-11-12T09:55:25.841Z,59.23
2022-11-12T09:58:30.158Z,59.34
2022-11-12T10:01:43.327Z,59.35
2022-11-12T10:05:06.115Z,59.39
2022-11-12T10:08:32.106Z,59.45
2022-11-12T10:12:04.580Z,59.30
2022-11-12T10:15:49.745Z,59.48
2022-11-12T10:19:10.341Z,59.94
2022-11-12T10:22:27.403Z,60.09
2022-11-12T10:25:32.424Z,60.25
2022-11-12T10:29:07.898Z,60.32
2022-11-12T10:32:15.587Z,60.36
2022-11-12T10:35:22.850Z,60.27
2022-11-12T10:38:28.902Z,60.55
2022-11-12T10:41:34.204Z,60.36
2022-11-12T10:44:39.571Z,60.38
2022-11-12T10:47:46.815Z,60.67
2022-11-12T10:50:51.246Z,60.49
2022-11-12T10:53:56.270Z,60.70
2022-11-12T10:57:19.797Z,60.50
2022-11-12T11:00:24.326Z,60.75
2022-11-12T11:03:32.554Z,60.35
2022-11-12T11:06:36.996Z,60.56
2022-11-12T11:10:00.252Z,60.53
2022-11-12T11:13:26.879Z,60.33
2022-11-12T11:16:32.000Z,59.97
2022-11-12T11:19:39.775Z,60.00
2022-11-12T11:22:50.306Z,60.48
2022-11-12T11:26:02.821Z,60.28
2022-11-12T11:29:25.195Z,60.29
2022-11-12T11:32:57.306Z,60.59
2022-11-12T11:36:24.516Z,61.04
2022-11-12T11:39:39.574Z,60.81
2022-11-12T11:42:59.190Z,60.65
2022-11-12T11:46:10.945Z,60.56
2022-11-12T11:49:42.973Z,60.26
2022-11-12T11:53:09.835Z,60.34
2022-11-12T11:56:26.382Z,60.31
2022-11-12T11:59:41.729Z,60.30
2022-11-12T12:02:53.169Z,60.17
2022-11-12T12:06:12.348Z,60.39
2022-11-12T12:09:16.301Z,60.49
2022-11-12T12:12:49.943Z,60.35
2022-11-12T12:16:03.000Z,60.45
2022-11-12T12:19:10.999Z,60.38
2022-11-12T12:22:21.992Z,60.36
2022-11-12T12:25:35.852Z,60.54
2022-11-12T12:29:16.841Z,60.26
2022-11-12T12:32:33.478Z,60.45
2022-11-12T12:35:51.803Z,60.19
2022-11-12T12:39:04.419Z,60.10
2022-11-12T12:42:18.682Z,60.54
2022-11-12T12:45:23.198Z,60.11
2022-11-12T12:48:31.554Z,59.84
2022-11-12T12:51:35.956Z,59.84
2022-11-12T12:54:52.201Z,60.18
2022-11-12T12:58:00.120Z,60.53
2022-11-12T13:01:11.616Z,60.35
2022-11-12T13:04:16.011Z,60.53
2022-11-12T13:07:38.863Z,61.08
2022-11-12T13:10:43.232Z,61.19
2022-11-12T13:13:47.607Z,61.15
2022-11-12T13:16:52.075Z,61.49
2022-11-12T13:19:59.082Z,61.66
2022-11-12T13:23:05.648Z,61.37
2022-11-12T13:26:45.672Z,60.80
2022-11-12T13:29:50.180Z,60.42
2022-11-12T13:32:55.960Z,60.74
2022-11-12T13:36:26.031Z,61.54
2022-11-12T13:39:35.527Z,62.71
2022-11-12T13:42:49.809Z,62.44
2022-11-12T13:46:24.899Z,62.83
2022-11-12T13:49:31.940Z,62.25
2022-11-12T13:52:40.372Z,61.88
2022-11-12T13:55:50.031Z,61.06
2022-11-12T13:58:54.331Z,61.66
2022-11-12T14:02:05.347Z,61.43
2022-11-12T14:05:15.695Z,62.37
2022-11-12T14:08:35.124Z,61.70
2022-11-12T14:11:48.785Z,60.58
2022-11-12T14:15:28.608Z,61.23
2022-11-12T14:18:38.706Z,61.30
2022-11-12T14:21:43.485Z,61.57
2022-11-12T14:25:01.629Z,61.71
2022-11-12T14:28:06.450Z,61.82
2022-11-12T14:31:15.045Z,61.64
2022-11-12T14:34:28.842Z,61.93
2022-11-12T14:37:33.100Z,61.80
2022-11-12T14:40:43.661Z,61.68
2022-11-12T14:44:11.029Z,61.95
2022-11-12T14:47:18.168Z,61.78
2022-11-12T14:50:33.403Z,62.18
2022-11-12T14:53:43.706Z,62.16
2022-11-12T14:56:49.523Z,62.04
2022-11-12T14:59:54.506Z,61.67
2022-11-12T15:03:02.134Z,61.92
2022-11-12T15:06:06.303Z,61.77
2022-11-12T15:09:10.410Z,61.73
2022-11-12T15:12:22.398Z,61.58
2022-11-12T15:15:26.870Z,61.80
2022-11-12T15:18:33.817Z,61.76
2022-11-12T15:21:48.073Z,61.89
2022-11-12T15:24:52.602Z,62.03
2022-11-12T15:28:12.568Z,62.01
2022-11-12T15:31:20.797Z,62.07
2022-11-12T15:34:33.106Z,62.16
2022-11-12T15:37:43.445Z,62.26
2022-11-12T15:40:57.268Z,62.40
2022-11-12T15:44:02.822Z,62.61
2022-11-12T15:47:14.364Z,62.29
2022-11-12T15:50:22.759Z,62.24
2022-11-12T15:53:28.570Z,62.50
2022-11-12T15:56:33.261Z,62.27
2022-11-12T15:59:37.672Z,62.29
2022-11-12T16:02:43.026Z,62.18
2022-11-12T16:05:47.317Z,61.89
2022-11-12T16:08:51.343Z,61.65
2022-11-12T16:11:57.509Z,61.38
2022-11-12T16:15:02.196Z,61.21
2022-11-12T16:18:10.050Z,61.09
2022-11-12T16:21:20.494Z,60.96
2022-11-12T16:24:25.185Z,61.26
2022-11-12T16:27:30.231Z,61.55
2022-11-12T16:30:34.670Z,61.57
2022-11-12T16:33:38.956Z,61.85
2022-11-12T16:36:43.203Z,61.67
2022-11-12T16:39:47.266Z,61.68
2022-11-12T16:42:52.255Z,62.04
2022-11-12T16:45:56.632Z,61.78
2022-11-12T16:49:01.026Z,61.72
2022-11-12T16:52:05.158Z,61.59
2022-11-12T16:55:10.320Z,61.26
2022-11-12T16:58:15.162Z,61.10
2022-11-12T17:01:29.352Z,60.94
2022-11-12T17:04:35.985Z,60.98
2022-11-12T17:07:40.186Z,60.86
2022-11-12T17:10:44.869Z,60.63
2022-11-12T17:13:49.678Z,60.45
2022-11-12T17:16:53.988Z,60.68
2022-11-12T17:19:58.504Z,60.39
2022-11-12T17:23:02.600Z,60.47
2022-11-12T17:26:10.329Z,60.36
2022-11-12T17:29:14.599Z,58.44
2022-11-12T17:32:19.260Z,58.92
2022-11-12T17:35:25.128Z,59.01
2022-11-12T17:38:30.883Z,59.28
2022-11-12T17:41:35.109Z,59.42
2022-11-12T17:44:39.855Z,59.48
2022-11-12T17:47:44.937Z,59.84
2022-11-12T17:50:50.117Z,60.01
2022-11-12T17:53:54.912Z,60.15
2022-11-12T17:56:59.375Z,60.05
2022-11-12T18:00:04.947Z,60.24
2022-11-12T18:03:09.288Z,60.25
2022-11-12T18:06:16.653Z,60.35
2022-11-12T18:09:21.563Z,60.36
2022-11-12T18:12:25.646Z,59.84
2022-11-12T18:15:33.295Z,59.84
2022-11-12T18:18:37.779Z,60.00
2022-11-12T18:21:42.499Z,59.86
2022-11-12T18:24:50.964Z,59.98
2022-11-12T18:27:55.725Z,60.63
2022-11-12T18:31:06.798Z,60.13
2022-11-12T18:34:15.106Z,59.77
2022-11-12T18:37:19.401Z,59.63
2022-11-12T18:40:24.339Z,59.72
2022-11-12T18:43:29.213Z,59.73
2022-11-12T18:46:33.936Z,60.05
2022-11-12T18:49:38.980Z,59.68
2022-11-12T18:52:43.753Z,59.59
2022-11-12T18:55:48.358Z,59.93
2022-11-12T18:58:52.956Z,59.43
2022-11-12T19:01:58.840Z,60.76
2022-11-12T19:05:03.478Z,59.61
2022-11-12T19:08:08.070Z,59.78
2022-11-12T19:11:15.453Z,59.57
2022-11-12T19:14:20.111Z,59.70
2022-11-12T19:17:30.491Z,59.74
2022-11-12T19:20:35.689Z,59.83
2022-11-12T19:23:41.428Z,59.65
2022-11-12T19:26:46.637Z,60.27
2022-11-12T19:29:51.237Z,59.77
2022-11-12T19:32:56.720Z,58.20
2022-11-12T19:36:06.712Z,59.20
2022-11-12T19:39:11.842Z,59.17
2022-11-12T19:42:15.988Z,60.24
2022-11-12T19:45:20.133Z,59.46
2022-11-12T19:48:25.092Z,59.33
2022-11-12T19:51:31.309Z,59.39
2022-11-12T19:54:36.057Z,59.39
2022-11-12T19:57:45.111Z,59.37
2022-11-12T20:00:49.377Z,59.69
2022-11-12T20:03:54.305Z,59.44
2022-11-12T20:06:58.520Z,59.69
2022-11-12T20:10:03.167Z,59.81
2022-11-12T20:13:07.195Z,59.86
2022-11-12T20:16:20.731Z,59.79
2022-11-12T20:19:28.104Z,60.00
2022-11-12T20:22:33.083Z,60.27
2022-11-12T20:25:37.575Z,60.04
2022-11-12T20:28:43.208Z,60.25
2022-11-12T20:31:47.803Z,60.41
2022-11-12T20:34:52.474Z,59.97
2022-11-12T20:37:56.583Z,60.26
2022-11-12T20:41:02.803Z,60.02
2022-11-12T20:44:06.882Z,60.12
2022-11-12T20:47:11.035Z,60.11
2022-11-12T20:50:15.981Z,61.05
2022-11-12T20:53:20.586Z,60.01
2022-11-12T20:56:26.875Z,60.22
2022-11-12T20:59:31.703Z,60.24
2022-11-12T21:02:35.783Z,60.03
2022-11-12T21:05:39.950Z,59.99
2022-11-12T21:08:45.043Z,59.88
2022-11-12T21:11:49.464Z,59.79
2022-11-12T21:14:53.940Z,59.50
2022-11-12T21:17:57.873Z,59.48
2022-11-12T21:21:05.208Z,59.49
2022-11-12T21:24:09.454Z,59.50
2022-11-12T21:27:13.967Z,59.73
2022-11-12T21:30:19.834Z,59.68
2022-11-12T21:33:24.168Z,59.70
2022-11-12T21:36:28.605Z,59.65
2022-11-12T21:39:32.813Z,59.91
2022-11-12T21:42:37.039Z,59.89
2022-11-12T21:45:46.399Z,59.98
2022-11-12T21:48:55.279Z,60.04
2022-11-12T21:51:59.851Z,59.91
2022-11-12T21:55:04.700Z,60.05
2022-11-12T21:58:08.758Z,60.09
2022-11-12T22:01:19.907Z,60.11
2022-11-12T22:04:24.984Z,60.20
2022-11-12T22:07:28.901Z,60.24
2022-11-12T22:10:33.113Z,60.23
2022-11-12T22:13:38.158Z,60.30
2022-11-12T22:16:42.241Z,60.37
2022-11-12T22:19:46.434Z,60.39
2022-11-12T22:22:52.203Z,60.43
2022-11-12T22:25:57.755Z,60.51
2022-11-12T22:29:02.015Z,60.55
2022-11-12T22:32:06.677Z,60.52
2022-11-12T22:35:11.251Z,60.60
2022-11-12T22:38:15.204Z,60.64
2022-11-12T22:41:21.763Z,60.73
2022-11-12T22:44:25.839Z,60.68
2022-11-12T22:47:30.079Z,60.71
2022-11-12T22:50:34.361Z,60.78
2022-11-12T22:53:39.116Z,60.94
2022-11-12T22:56:43.159Z,60.87
2022-11-12T22:59:47.151Z,60.88
2022-11-12T23:02:51.147Z,60.82
2022-11-12T23:06:05.360Z,60.88
2022-11-12T23:09:15.406Z,60.97
2022-11-12T23:12:19.382Z,60.87
2022-11-12T23:15:23.387Z,60.95
2022-11-12T23:18:27.767Z,61.05
2022-11-12T23:21:32.486Z,61.03
2022-11-12T23:24:36.584Z,61.02
2022-11-12T23:27:40.685Z,61.13
2022-11-12T23:30:50.349Z,61.05
2022-11-12T23:33:56.756Z,61.20
2022-11-12T23:37:00.464Z,61.20
2022-11-12T23:40:05.184Z,61.22
2022-11-12T23:43:09.603Z,61.27
2022-11-12T23:46:14.002Z,61.15
2022-11-12T23:49:18.209Z,61.26
2022-11-12T23:52:22.474Z,61.19
2022-11-12T23:55:29.127Z,61.20
2022-11-12T23:58:33.741Z,61.22
